2026/07/20

Sensor Date Temp./Hum.
h4-hermonville 20-07-2026 - 23:58 19.2°C / 50%
h2-hermonville 20-07-2026 - 23:54 19.9°C / 49%
h1-hermonville 20-07-2026 - 23:54 16.4°C / 59%
h3-hermonville 20-07-2026 - 23:50 18.3°C / 52%
h4-hermonville 20-07-2026 - 23:48 19.4°C / 49%
h2-hermonville 20-07-2026 - 23:44 20.6°C / 46.5%
h1-hermonville 20-07-2026 - 23:44 16.5°C / 58%
h3-hermonville 20-07-2026 - 23:40 18.4°C / 51.5%
h4-hermonville 20-07-2026 - 23:38 19.4°C / 48.5%
h2-hermonville 20-07-2026 - 23:34 21.1°C / 45.5%
h1-hermonville 20-07-2026 - 23:34 16.8°C / 56.5%
h3-hermonville 20-07-2026 - 23:30 18.7°C / 50.5%
h4-hermonville 20-07-2026 - 23:28 19.5°C / 48%
h2-hermonville 20-07-2026 - 23:24 21.2°C / 45%
h1-hermonville 20-07-2026 - 23:24 16.9°C / 55%
h3-hermonville 20-07-2026 - 23:20 18.8°C / 49.5%
h4-hermonville 20-07-2026 - 23:18 19.6°C / 47%
h2-hermonville 20-07-2026 - 23:14 22°C / 43%
h1-hermonville 20-07-2026 - 23:14 17.2°C / 54%
h3-hermonville 20-07-2026 - 23:10 18.8°C / 49%
h4-hermonville 20-07-2026 - 23:08 19.6°C / 46.5%
h2-hermonville 20-07-2026 - 23:04 22°C / 42.5%
h1-hermonville 20-07-2026 - 23:04 17.4°C / 53%
h3-hermonville 20-07-2026 - 23:00 19.1°C / 48%
h4-hermonville 20-07-2026 - 22:58 19.9°C / 45.5%
h1-hermonville 20-07-2026 - 22:54 17.5°C / 52%
h3-hermonville 20-07-2026 - 22:50 19.2°C / 47.5%
h4-hermonville 20-07-2026 - 22:48 20.1°C / 45.5%
h2-hermonville 20-07-2026 - 22:44 21.9°C / 42%
h1-hermonville 20-07-2026 - 22:44 17.7°C / 51.5%
h3-hermonville 20-07-2026 - 22:40 19.4°C / 47%
h4-hermonville 20-07-2026 - 22:38 20.1°C / 45.5%
h2-hermonville 20-07-2026 - 22:34 22.2°C / 42%
h1-hermonville 20-07-2026 - 22:34 17.9°C / 51%
h3-hermonville 20-07-2026 - 22:30 19.5°C / 46.5%
h4-hermonville 20-07-2026 - 22:28 20.1°C / 45%
h2-hermonville 20-07-2026 - 22:24 22.3°C / 43%
h1-hermonville 20-07-2026 - 22:24 18°C / 50.5%
h3-hermonville 20-07-2026 - 22:20 19.6°C / 46%
h4-hermonville 20-07-2026 - 22:18 20.2°C / 44.5%
h2-hermonville 20-07-2026 - 22:14 22.5°C / 42%
h1-hermonville 20-07-2026 - 22:14 18.1°C / 50%
h3-hermonville 20-07-2026 - 22:10 19.8°C / 46%
h4-hermonville 20-07-2026 - 22:08 20.4°C / 44.5%
h2-hermonville 20-07-2026 - 22:04 22.7°C / 42%
h1-hermonville 20-07-2026 - 22:04 18.4°C / 49.5%
h3-hermonville 20-07-2026 - 22:00 20°C / 45.5%
h4-hermonville 20-07-2026 - 21:58 20.5°C / 44%
h2-hermonville 20-07-2026 - 21:54 22.9°C / 41%
h1-hermonville 20-07-2026 - 21:54 18.7°C / 49%
h3-hermonville 20-07-2026 - 21:50 20.2°C / 45%
h4-hermonville 20-07-2026 - 21:48 20.7°C / 44%
h2-hermonville 20-07-2026 - 21:44 23.2°C / 39.5%
h1-hermonville 20-07-2026 - 21:44 18.8°C / 48.5%
h3-hermonville 20-07-2026 - 21:40 20.4°C / 44.5%
h4-hermonville 20-07-2026 - 21:38 20.7°C / 44.5%
h2-hermonville 20-07-2026 - 21:34 23.4°C / 39.5%
h3-hermonville 20-07-2026 - 21:30 20.7°C / 44%
h4-hermonville 20-07-2026 - 21:28 21°C / 43.5%
h2-hermonville 20-07-2026 - 21:24 23.5°C / 40.5%
h1-hermonville 20-07-2026 - 21:24 19.3°C / 47.5%
h3-hermonville 20-07-2026 - 21:20 20.9°C / 43.5%
h4-hermonville 20-07-2026 - 21:18 21.1°C / 43.5%
h2-hermonville 20-07-2026 - 21:14 23.5°C / 41%
h1-hermonville 20-07-2026 - 21:14 19.5°C / 46.5%
h3-hermonville 20-07-2026 - 21:10 21°C / 43%
h4-hermonville 20-07-2026 - 21:08 21.1°C / 42.5%
h2-hermonville 20-07-2026 - 21:04 23.4°C / 40.5%
h1-hermonville 20-07-2026 - 21:04 19.9°C / 45.5%
h3-hermonville 20-07-2026 - 21:00 21.2°C / 42.5%
h4-hermonville 20-07-2026 - 20:58 21.3°C / 42.5%
h1-hermonville 20-07-2026 - 20:54 20.4°C / 44%
h3-hermonville 20-07-2026 - 20:50 21.4°C / 42%
h4-hermonville 20-07-2026 - 20:48 21.4°C / 41.5%
h2-hermonville 20-07-2026 - 20:44 24°C / 38%
h1-hermonville 20-07-2026 - 20:44 20.8°C / 43.5%
h3-hermonville 20-07-2026 - 20:40 21.6°C / 42%
h4-hermonville 20-07-2026 - 20:38 21.4°C / 41.5%
h2-hermonville 20-07-2026 - 20:34 24.2°C / 38.5%
h1-hermonville 20-07-2026 - 20:34 20.9°C / 43%
h3-hermonville 20-07-2026 - 20:30 21.8°C / 41.5%
h4-hermonville 20-07-2026 - 20:28 21.6°C / 41.5%
h2-hermonville 20-07-2026 - 20:24 24.7°C / 38%
h1-hermonville 20-07-2026 - 20:24 21°C / 43.5%
h3-hermonville 20-07-2026 - 20:20 21.8°C / 42%
h2-hermonville 20-07-2026 - 20:14 25°C / 37%
h1-hermonville 20-07-2026 - 20:14 20.9°C / 43%
h3-hermonville 20-07-2026 - 20:10 21.9°C / 41%
h4-hermonville 20-07-2026 - 20:08 21.7°C / 41%
h2-hermonville 20-07-2026 - 20:04 25.5°C / 36%
h1-hermonville 20-07-2026 - 20:04 21.2°C / 42%
h3-hermonville 20-07-2026 - 20:00 21.8°C / 40.5%
h2-hermonville 20-07-2026 - 19:54 26.8°C / 32%
h1-hermonville 20-07-2026 - 19:54 21.3°C / 41.5%
h3-hermonville 20-07-2026 - 19:50 21.9°C / 40.5%
h4-hermonville 20-07-2026 - 19:48 21.8°C / 40%
h2-hermonville 20-07-2026 - 19:44 27.5°C / 32.5%
h1-hermonville 20-07-2026 - 19:44 21.3°C / 41.5%
h3-hermonville 20-07-2026 - 19:40 22.1°C / 40.5%
h4-hermonville 20-07-2026 - 19:38 22°C / 41%
h2-hermonville 20-07-2026 - 19:34 28.6°C / 31.5%
h1-hermonville 20-07-2026 - 19:34 21.6°C / 42.5%
h3-hermonville 20-07-2026 - 19:30 22.3°C / 40.5%
h4-hermonville 20-07-2026 - 19:28 22°C / 40.5%
h2-hermonville 20-07-2026 - 19:24 28.7°C / 30.5%
h1-hermonville 20-07-2026 - 19:24 21.5°C / 42%
h3-hermonville 20-07-2026 - 19:20 22.4°C / 40%
h4-hermonville 20-07-2026 - 19:18 22°C / 40%
h2-hermonville 20-07-2026 - 19:14 28.8°C / 31%
h1-hermonville 20-07-2026 - 19:14 21.6°C / 41.5%
h3-hermonville 20-07-2026 - 19:10 22.3°C / 39.5%
h4-hermonville 20-07-2026 - 19:08 22°C / 39.5%
h2-hermonville 20-07-2026 - 19:04 27.6°C / 31%
h1-hermonville 20-07-2026 - 19:04 21.6°C / 40.5%
h3-hermonville 20-07-2026 - 19:00 22.2°C / 39%
h4-hermonville 20-07-2026 - 18:58 22°C / 38.5%
h2-hermonville 20-07-2026 - 18:54 28.2°C / 31%
h1-hermonville 20-07-2026 - 18:54 21.7°C / 40.5%
h3-hermonville 20-07-2026 - 18:50 22.4°C / 38.5%
h4-hermonville 20-07-2026 - 18:48 22.1°C / 39.5%
h2-hermonville 20-07-2026 - 18:44 28.7°C / 29.5%
h1-hermonville 20-07-2026 - 18:44 21.8°C / 39.5%
h3-hermonville 20-07-2026 - 18:40 22.3°C / 39%
h4-hermonville 20-07-2026 - 18:38 21.9°C / 39.5%
h2-hermonville 20-07-2026 - 18:34 27.2°C / 31.5%
h1-hermonville 20-07-2026 - 18:34 21.7°C / 40%
h3-hermonville 20-07-2026 - 18:30 22.3°C / 39.5%
h4-hermonville 20-07-2026 - 18:28 22.1°C / 39%
h2-hermonville 20-07-2026 - 18:24 27.9°C / 31%
h1-hermonville 20-07-2026 - 18:24 21.9°C / 40%
h3-hermonville 20-07-2026 - 18:20 22.6°C / 39%
h2-hermonville 20-07-2026 - 18:14 27.7°C / 33%
h1-hermonville 20-07-2026 - 18:14 21.6°C / 41%
h3-hermonville 20-07-2026 - 18:10 22.5°C / 40%
h4-hermonville 20-07-2026 - 18:08 22.1°C / 40%
h2-hermonville 20-07-2026 - 18:04 27.8°C / 31%
h1-hermonville 20-07-2026 - 18:04 21.6°C / 41.5%
h3-hermonville 20-07-2026 - 18:00 22.6°C / 39%
h4-hermonville 20-07-2026 - 17:58 22.2°C / 39.5%
h2-hermonville 20-07-2026 - 17:54 29°C / 31%
h1-hermonville 20-07-2026 - 17:54 21.8°C / 41.5%
h3-hermonville 20-07-2026 - 17:50 22.5°C / 39.5%
h4-hermonville 20-07-2026 - 17:48 22.2°C / 39.5%
h2-hermonville 20-07-2026 - 17:44 28.7°C / 31.5%
h1-hermonville 20-07-2026 - 17:44 21.9°C / 40.5%
h3-hermonville 20-07-2026 - 17:40 22.6°C / 39.5%
h4-hermonville 20-07-2026 - 17:38 22.1°C / 40%
h2-hermonville 20-07-2026 - 17:34 27.3°C / 32%
h1-hermonville 20-07-2026 - 17:34 21.7°C / 41%
h3-hermonville 20-07-2026 - 17:30 22.2°C / 39.5%
h4-hermonville 20-07-2026 - 17:28 22°C / 39%
h2-hermonville 20-07-2026 - 17:24 27.8°C / 31.5%
h1-hermonville 20-07-2026 - 17:24 21.9°C / 41%
h3-hermonville 20-07-2026 - 17:20 22.7°C / 39.5%
h4-hermonville 20-07-2026 - 17:18 22.1°C / 40%
h2-hermonville 20-07-2026 - 17:14 27°C / 34%
h1-hermonville 20-07-2026 - 17:14 21.5°C / 42%
h3-hermonville 20-07-2026 - 17:10 22.4°C / 40%
h4-hermonville 20-07-2026 - 17:08 22°C / 40.5%
h2-hermonville 20-07-2026 - 17:04 26.2°C / 34%
h1-hermonville 20-07-2026 - 17:04 21.5°C / 42%
h3-hermonville 20-07-2026 - 17:00 22.5°C / 39.5%
h4-hermonville 20-07-2026 - 16:58 22°C / 40%
h2-hermonville 20-07-2026 - 16:54 27.7°C / 32%
h1-hermonville 20-07-2026 - 16:54 21.5°C / 41.5%
h3-hermonville 20-07-2026 - 16:50 22.5°C / 39%
h4-hermonville 20-07-2026 - 16:48 22.1°C / 39.5%
h2-hermonville 20-07-2026 - 16:44 27.9°C / 32.5%
h1-hermonville 20-07-2026 - 16:44 21.5°C / 41%
h3-hermonville 20-07-2026 - 16:40 22.3°C / 39%
h4-hermonville 20-07-2026 - 16:38 21.9°C / 39%
h2-hermonville 20-07-2026 - 16:34 26.8°C / 33.5%
h1-hermonville 20-07-2026 - 16:34 21.4°C / 41%
h3-hermonville 20-07-2026 - 16:30 22.5°C / 40%
h4-hermonville 20-07-2026 - 16:28 21.9°C / 40%
h2-hermonville 20-07-2026 - 16:24 25.8°C / 34.5%
h1-hermonville 20-07-2026 - 16:24 21.6°C / 40.5%
h3-hermonville 20-07-2026 - 16:20 22.5°C / 40%
h4-hermonville 20-07-2026 - 16:18 22.2°C / 39.5%
h2-hermonville 20-07-2026 - 16:14 25.3°C / 36.5%
h1-hermonville 20-07-2026 - 16:14 21.4°C / 42%
h3-hermonville 20-07-2026 - 16:10 22.4°C / 40%
h4-hermonville 20-07-2026 - 16:08 22°C / 40%
h2-hermonville 20-07-2026 - 16:04 25.2°C / 36.5%
h1-hermonville 20-07-2026 - 16:04 21.3°C / 42.5%
h3-hermonville 20-07-2026 - 16:00 22.4°C / 40%
h4-hermonville 20-07-2026 - 15:58 22.1°C / 40%
h2-hermonville 20-07-2026 - 15:54 24.6°C / 37%
h1-hermonville 20-07-2026 - 15:54 20.9°C / 43%
h3-hermonville 20-07-2026 - 15:50 22.4°C / 40.5%
h4-hermonville 20-07-2026 - 15:48 22°C / 40.5%
h2-hermonville 20-07-2026 - 15:44 24.1°C / 38%
h1-hermonville 20-07-2026 - 15:44 20.9°C / 42.5%
h3-hermonville 20-07-2026 - 15:40 22.2°C / 40.5%
h4-hermonville 20-07-2026 - 15:38 22°C / 41%
h2-hermonville 20-07-2026 - 15:34 23.9°C / 38.5%
h1-hermonville 20-07-2026 - 15:34 21.2°C / 43%
h3-hermonville 20-07-2026 - 15:30 22.1°C / 40%
h2-hermonville 20-07-2026 - 15:24 23.7°C / 38.5%
h1-hermonville 20-07-2026 - 15:24 21°C / 43%
h3-hermonville 20-07-2026 - 15:20 21.8°C / 40.5%
h4-hermonville 20-07-2026 - 15:18 22°C / 39.5%
h2-hermonville 20-07-2026 - 15:14 23.6°C / 39.5%
h1-hermonville 20-07-2026 - 15:14 20.4°C / 43%
h3-hermonville 20-07-2026 - 15:10 21.7°C / 41.5%
h4-hermonville 20-07-2026 - 15:08 21.8°C / 41%
h2-hermonville 20-07-2026 - 15:04 22.8°C / 42%
h1-hermonville 20-07-2026 - 15:04 20.2°C / 44%
h3-hermonville 20-07-2026 - 15:00 21.8°C / 41%
h4-hermonville 20-07-2026 - 14:58 21.9°C / 40.5%
h2-hermonville 20-07-2026 - 14:54 22.8°C / 42%
h1-hermonville 20-07-2026 - 14:54 20.4°C / 43.5%
h3-hermonville 20-07-2026 - 14:50 21.6°C / 41.5%
h2-hermonville 20-07-2026 - 14:44 23°C / 42%
h1-hermonville 20-07-2026 - 14:44 20.5°C / 44.5%
h3-hermonville 20-07-2026 - 14:40 21.3°C / 42%
h4-hermonville 20-07-2026 - 14:38 21.7°C / 41%
h2-hermonville 20-07-2026 - 14:34 22.4°C / 42.5%
h1-hermonville 20-07-2026 - 14:34 20°C / 45.5%
h3-hermonville 20-07-2026 - 14:30 21.3°C / 42.5%
h4-hermonville 20-07-2026 - 14:28 21.5°C / 42%
h2-hermonville 20-07-2026 - 14:24 22.1°C / 41.5%
h1-hermonville 20-07-2026 - 14:24 20.3°C / 44.5%
h3-hermonville 20-07-2026 - 14:20 21.5°C / 42.5%
h4-hermonville 20-07-2026 - 14:18 21.3°C / 41.5%
h2-hermonville 20-07-2026 - 14:14 22.5°C / 43.5%
h1-hermonville 20-07-2026 - 14:14 19.9°C / 45.5%
h3-hermonville 20-07-2026 - 14:10 21.1°C / 43.5%
h4-hermonville 20-07-2026 - 14:08 21.5°C / 42.5%
h2-hermonville 20-07-2026 - 14:04 22.3°C / 43.5%
h1-hermonville 20-07-2026 - 14:04 19.8°C / 46.5%
h3-hermonville 20-07-2026 - 14:00 21.1°C / 43.5%
h4-hermonville 20-07-2026 - 13:58 21.4°C / 42.5%
h2-hermonville 20-07-2026 - 13:54 22°C / 42.5%
h1-hermonville 20-07-2026 - 13:54 20°C / 46.5%
h3-hermonville 20-07-2026 - 13:50 21.1°C / 43%
h4-hermonville 20-07-2026 - 13:48 20.9°C / 41.5%
h2-hermonville 20-07-2026 - 13:44 22.1°C / 42%
h1-hermonville 20-07-2026 - 13:44 20°C / 45.5%
h3-hermonville 20-07-2026 - 13:40 21°C / 45%
h4-hermonville 20-07-2026 - 13:38 21.1°C / 43%
h2-hermonville 20-07-2026 - 13:34 21.7°C / 43.5%
h1-hermonville 20-07-2026 - 13:34 19.7°C / 47%
h3-hermonville 20-07-2026 - 13:30 20.5°C / 45.5%
h4-hermonville 20-07-2026 - 13:28 21.1°C / 43.5%
h2-hermonville 20-07-2026 - 13:24 21.4°C / 45%
h1-hermonville 20-07-2026 - 13:24 19.7°C / 47.5%
h3-hermonville 20-07-2026 - 13:20 20.8°C / 45.5%
h4-hermonville 20-07-2026 - 13:18 20.4°C / 45%
h2-hermonville 20-07-2026 - 13:14 21.4°C / 44.5%
h1-hermonville 20-07-2026 - 13:14 19.6°C / 48%
h3-hermonville 20-07-2026 - 13:10 21°C / 45%
h1-hermonville 20-07-2026 - 13:04 19.4°C / 48%
h3-hermonville 20-07-2026 - 13:00 20.7°C / 47%
h4-hermonville 20-07-2026 - 12:58 20.5°C / 45.5%
h2-hermonville 20-07-2026 - 12:54 21.4°C / 45%
h1-hermonville 20-07-2026 - 12:54 19°C / 50%
h3-hermonville 20-07-2026 - 12:50 20°C / 47%
h4-hermonville 20-07-2026 - 12:48 20.9°C / 44%
h2-hermonville 20-07-2026 - 12:44 21.3°C / 46%
h1-hermonville 20-07-2026 - 12:44 18.7°C / 51%
h3-hermonville 20-07-2026 - 12:40 20.2°C / 46.5%
h4-hermonville 20-07-2026 - 12:38 20.6°C / 44.5%
h2-hermonville 20-07-2026 - 12:34 20.9°C / 44.5%
h1-hermonville 20-07-2026 - 12:34 18.8°C / 49%
h3-hermonville 20-07-2026 - 12:30 20.4°C / 45%
h4-hermonville 20-07-2026 - 12:28 21.2°C / 42%
h2-hermonville 20-07-2026 - 12:24 21.1°C / 46.5%
h1-hermonville 20-07-2026 - 12:24 18.7°C / 48.5%
h3-hermonville 20-07-2026 - 12:20 20°C / 46%
h4-hermonville 20-07-2026 - 12:18 22°C / 41.5%
h2-hermonville 20-07-2026 - 12:14 21.1°C / 47%
h1-hermonville 20-07-2026 - 12:14 18.4°C / 50.5%
h3-hermonville 20-07-2026 - 12:10 19.9°C / 46.5%
h4-hermonville 20-07-2026 - 12:08 22.4°C / 40.5%
h2-hermonville 20-07-2026 - 12:04 21.2°C / 45.5%
h1-hermonville 20-07-2026 - 12:04 18.5°C / 51%
h3-hermonville 20-07-2026 - 12:00 20.2°C / 46%
h4-hermonville 20-07-2026 - 11:58 23.9°C / 37.5%
h2-hermonville 20-07-2026 - 11:54 21°C / 46%
h1-hermonville 20-07-2026 - 11:54 19°C / 50.5%
h3-hermonville 20-07-2026 - 11:50 20.1°C / 47%
h4-hermonville 20-07-2026 - 11:48 23.8°C / 38%
h2-hermonville 20-07-2026 - 11:44 21.1°C / 46%
h1-hermonville 20-07-2026 - 11:44 19.3°C / 48%
h3-hermonville 20-07-2026 - 11:40 20.4°C / 46%
h4-hermonville 20-07-2026 - 11:38 25.2°C / 34%
h2-hermonville 20-07-2026 - 11:34 20.8°C / 46.5%
h1-hermonville 20-07-2026 - 11:34 18.9°C / 48%
h3-hermonville 20-07-2026 - 11:30 20.2°C / 47.5%
h4-hermonville 20-07-2026 - 11:28 24.1°C / 37.5%
h2-hermonville 20-07-2026 - 11:24 20.1°C / 47%
h1-hermonville 20-07-2026 - 11:24 18.3°C / 51.5%
h3-hermonville 20-07-2026 - 11:20 19.7°C / 51.5%
h4-hermonville 20-07-2026 - 11:18 23°C / 41.5%
h2-hermonville 20-07-2026 - 11:14 19.7°C / 52%
h1-hermonville 20-07-2026 - 11:14 17.6°C / 56.5%
h3-hermonville 20-07-2026 - 11:10 19.6°C / 52%
h4-hermonville 20-07-2026 - 11:08 22.6°C / 44.5%
h2-hermonville 20-07-2026 - 11:04 20°C / 51.5%
h1-hermonville 20-07-2026 - 11:04 17.2°C / 59.5%
h3-hermonville 20-07-2026 - 11:00 19.4°C / 52.5%
h4-hermonville 20-07-2026 - 10:58 22.2°C / 44.5%
h2-hermonville 20-07-2026 - 10:54 19.8°C / 51.5%
h1-hermonville 20-07-2026 - 10:54 17.6°C / 58%
h3-hermonville 20-07-2026 - 10:50 19.5°C / 51%
h4-hermonville 20-07-2026 - 10:48 22°C / 42%
h2-hermonville 20-07-2026 - 10:44 19.7°C / 50.5%
h1-hermonville 20-07-2026 - 10:44 17.9°C / 54.5%
h3-hermonville 20-07-2026 - 10:40 19.4°C / 51%
h4-hermonville 20-07-2026 - 10:38 22.3°C / 42.5%
h1-hermonville 20-07-2026 - 10:34 17.8°C / 56%
h3-hermonville 20-07-2026 - 10:30 19.6°C / 52%
h4-hermonville 20-07-2026 - 10:28 26°C / 35.5%
h2-hermonville 20-07-2026 - 10:24 19.4°C / 53%
h1-hermonville 20-07-2026 - 10:24 17.4°C / 57.5%
h3-hermonville 20-07-2026 - 10:20 18.8°C / 54%
h2-hermonville 20-07-2026 - 10:14 18.2°C / 57%
h1-hermonville 20-07-2026 - 10:14 16.5°C / 63%
h3-hermonville 20-07-2026 - 10:10 18.6°C / 56%
h4-hermonville 20-07-2026 - 10:08 27.1°C / 34.5%
h2-hermonville 20-07-2026 - 10:04 18.2°C / 58.5%
h1-hermonville 20-07-2026 - 10:04 16.4°C / 63%
h3-hermonville 20-07-2026 - 10:00 18.4°C / 58%
h4-hermonville 20-07-2026 - 09:58 28.1°C / 35%
h2-hermonville 20-07-2026 - 09:54 17.9°C / 60%
h1-hermonville 20-07-2026 - 09:54 16.2°C / 65%
h3-hermonville 20-07-2026 - 09:50 18.4°C / 58%
h4-hermonville 20-07-2026 - 09:48 26°C / 39%
h2-hermonville 20-07-2026 - 09:44 17.8°C / 60%
h1-hermonville 20-07-2026 - 09:44 16°C / 65.5%
h3-hermonville 20-07-2026 - 09:40 18.3°C / 59%
h4-hermonville 20-07-2026 - 09:38 25.1°C / 40.5%
h2-hermonville 20-07-2026 - 09:34 17.4°C / 62.5%
h1-hermonville 20-07-2026 - 09:34 15.7°C / 68.5%
h3-hermonville 20-07-2026 - 09:30 18°C / 59.5%
h4-hermonville 20-07-2026 - 09:28 24.9°C / 40%
h2-hermonville 20-07-2026 - 09:24 16.8°C / 64%
h1-hermonville 20-07-2026 - 09:24 15°C / 70.5%
h3-hermonville 20-07-2026 - 09:20 17.5°C / 61.5%
h4-hermonville 20-07-2026 - 09:18 26.3°C / 38.5%
h2-hermonville 20-07-2026 - 09:14 16.7°C / 63.5%
h1-hermonville 20-07-2026 - 09:14 14.6°C / 71%
h3-hermonville 20-07-2026 - 09:10 17.2°C / 62%
h4-hermonville 20-07-2026 - 09:08 24.7°C / 41%
h2-hermonville 20-07-2026 - 09:04 16.3°C / 65%
h1-hermonville 20-07-2026 - 09:04 14.6°C / 71.5%
h3-hermonville 20-07-2026 - 09:00 16.7°C / 63.5%
h4-hermonville 20-07-2026 - 08:58 24.5°C / 42%
h2-hermonville 20-07-2026 - 08:54 16.5°C / 64.5%
h1-hermonville 20-07-2026 - 08:54 14.1°C / 73%
h3-hermonville 20-07-2026 - 08:50 16.6°C / 63%
h4-hermonville 20-07-2026 - 08:48 21.8°C / 48%
h2-hermonville 20-07-2026 - 08:44 16.2°C / 65.5%
h1-hermonville 20-07-2026 - 08:44 14.2°C / 73.5%
h3-hermonville 20-07-2026 - 08:40 16.4°C / 64%
h4-hermonville 20-07-2026 - 08:38 19.9°C / 52.5%
h2-hermonville 20-07-2026 - 08:34 15.5°C / 67%
h1-hermonville 20-07-2026 - 08:34 13.8°C / 73%
h2-hermonville 20-07-2026 - 08:24 15.4°C / 66.5%
h1-hermonville 20-07-2026 - 08:24 13.7°C / 73%
h3-hermonville 20-07-2026 - 08:20 16°C / 65%
h4-hermonville 20-07-2026 - 08:18 18.8°C / 55%
h2-hermonville 20-07-2026 - 08:14 15.2°C / 68%
h1-hermonville 20-07-2026 - 08:14 13.6°C / 74%
h3-hermonville 20-07-2026 - 08:10 15.6°C / 66%
h4-hermonville 20-07-2026 - 08:08 18.6°C / 55%
h2-hermonville 20-07-2026 - 08:04 14.9°C / 68.5%
h1-hermonville 20-07-2026 - 08:04 13.4°C / 74.5%
h3-hermonville 20-07-2026 - 08:00 15.3°C / 66.5%
h4-hermonville 20-07-2026 - 07:58 18.4°C / 56%
h2-hermonville 20-07-2026 - 07:54 14.6°C / 69.5%
h1-hermonville 20-07-2026 - 07:54 13.3°C / 74.5%
h3-hermonville 20-07-2026 - 07:50 15.1°C / 67%
h4-hermonville 20-07-2026 - 07:48 18°C / 56.5%
h2-hermonville 20-07-2026 - 07:44 14.6°C / 69.5%
h1-hermonville 20-07-2026 - 07:44 13.2°C / 75%
h3-hermonville 20-07-2026 - 07:40 15°C / 67.5%
h4-hermonville 20-07-2026 - 07:38 17.8°C / 57%
h1-hermonville 20-07-2026 - 07:34 13.1°C / 75%
h3-hermonville 20-07-2026 - 07:30 14.8°C / 68%
h4-hermonville 20-07-2026 - 07:28 17.4°C / 58%
h2-hermonville 20-07-2026 - 07:24 14.9°C / 68.5%
h1-hermonville 20-07-2026 - 07:24 13°C / 75.5%
h3-hermonville 20-07-2026 - 07:20 14.7°C / 68.5%
h4-hermonville 20-07-2026 - 07:18 17.3°C / 58.5%
h2-hermonville 20-07-2026 - 07:14 14.6°C / 69%
h1-hermonville 20-07-2026 - 07:14 12.7°C / 77%
h3-hermonville 20-07-2026 - 07:10 14.5°C / 68.5%
h4-hermonville 20-07-2026 - 07:08 17.2°C / 58.5%
h2-hermonville 20-07-2026 - 07:04 15.2°C / 66%
h1-hermonville 20-07-2026 - 07:04 12.5°C / 77.5%
h3-hermonville 20-07-2026 - 07:00 14.6°C / 68.5%
h4-hermonville 20-07-2026 - 06:58 17.1°C / 59%
h2-hermonville 20-07-2026 - 06:54 15°C / 67.5%
h1-hermonville 20-07-2026 - 06:54 12.4°C / 78%
h3-hermonville 20-07-2026 - 06:50 14.5°C / 68%
h4-hermonville 20-07-2026 - 06:48 16.7°C / 60%
h2-hermonville 20-07-2026 - 06:44 15.2°C / 66%
h1-hermonville 20-07-2026 - 06:44 12.2°C / 78.5%
h3-hermonville 20-07-2026 - 06:40 14.4°C / 68%
h4-hermonville 20-07-2026 - 06:38 16.6°C / 60%
h2-hermonville 20-07-2026 - 06:34 15.1°C / 66%
h1-hermonville 20-07-2026 - 06:34 12.1°C / 78.5%
h3-hermonville 20-07-2026 - 06:30 14.6°C / 68%
h4-hermonville 20-07-2026 - 06:28 16.6°C / 60%
h2-hermonville 20-07-2026 - 06:24 15.2°C / 68%
h1-hermonville 20-07-2026 - 06:24 12.2°C / 78.5%
h3-hermonville 20-07-2026 - 06:20 14.5°C / 68%
h4-hermonville 20-07-2026 - 06:18 16.4°C / 60.5%
h2-hermonville 20-07-2026 - 06:14 14.9°C / 67.5%
h1-hermonville 20-07-2026 - 06:14 12.1°C / 78.5%
h3-hermonville 20-07-2026 - 06:10 14.7°C / 67%
h4-hermonville 20-07-2026 - 06:08 16.1°C / 61.5%
h2-hermonville 20-07-2026 - 06:04 14.9°C / 68%
h1-hermonville 20-07-2026 - 06:04 12.1°C / 78.5%
h3-hermonville 20-07-2026 - 06:00 14.8°C / 67%
h4-hermonville 20-07-2026 - 05:58 16°C / 61.5%
h2-hermonville 20-07-2026 - 05:54 14.5°C / 68.5%
h1-hermonville 20-07-2026 - 05:54 12.1°C / 78%
h3-hermonville 20-07-2026 - 05:50 14.8°C / 66.5%
h4-hermonville 20-07-2026 - 05:48 16.5°C / 60%
h2-hermonville 20-07-2026 - 05:44 15°C / 66.5%
h1-hermonville 20-07-2026 - 05:44 12.2°C / 78%
h3-hermonville 20-07-2026 - 05:40 14.9°C / 66.5%
h4-hermonville 20-07-2026 - 05:38 16.8°C / 59%
h2-hermonville 20-07-2026 - 05:34 15.2°C / 66%
h1-hermonville 20-07-2026 - 05:34 12.2°C / 77.5%
h3-hermonville 20-07-2026 - 05:30 15°C / 66%
h4-hermonville 20-07-2026 - 05:28 16.7°C / 59.5%
h2-hermonville 20-07-2026 - 05:24 15.2°C / 65.5%
h1-hermonville 20-07-2026 - 05:24 12.3°C / 77.5%
h3-hermonville 20-07-2026 - 05:20 15.1°C / 65.5%
h4-hermonville 20-07-2026 - 05:18 16.7°C / 59%
h2-hermonville 20-07-2026 - 05:14 15.8°C / 63.5%
h1-hermonville 20-07-2026 - 05:14 12.2°C / 77.5%
h3-hermonville 20-07-2026 - 05:10 15.1°C / 65.5%
h4-hermonville 20-07-2026 - 05:08 16.8°C / 58.5%
h2-hermonville 20-07-2026 - 05:04 15.7°C / 64%
h1-hermonville 20-07-2026 - 05:04 12.4°C / 77%
h3-hermonville 20-07-2026 - 05:00 15.1°C / 65%
h4-hermonville 20-07-2026 - 04:58 16.9°C / 58.5%
h2-hermonville 20-07-2026 - 04:54 15.9°C / 63.5%
h1-hermonville 20-07-2026 - 04:54 12.3°C / 76.5%
h3-hermonville 20-07-2026 - 04:50 15.1°C / 64.5%
h4-hermonville 20-07-2026 - 04:48 16.9°C / 58%
h2-hermonville 20-07-2026 - 04:44 16°C / 63%
h1-hermonville 20-07-2026 - 04:44 12.5°C / 76%
h3-hermonville 20-07-2026 - 04:40 15.1°C / 64%
h4-hermonville 20-07-2026 - 04:38 17°C / 57.5%
h2-hermonville 20-07-2026 - 04:34 15.4°C / 64.5%
h1-hermonville 20-07-2026 - 04:34 12.5°C / 75%
h3-hermonville 20-07-2026 - 04:30 15.3°C / 64%
h4-hermonville 20-07-2026 - 04:28 17°C / 57.5%
h2-hermonville 20-07-2026 - 04:24 15.7°C / 63%
h1-hermonville 20-07-2026 - 04:24 12.7°C / 74.5%
h3-hermonville 20-07-2026 - 04:20 15.1°C / 64%
h4-hermonville 20-07-2026 - 04:18 17.3°C / 56%
h2-hermonville 20-07-2026 - 04:14 16.3°C / 60%
h1-hermonville 20-07-2026 - 04:14 12.7°C / 74%
h3-hermonville 20-07-2026 - 04:10 15.4°C / 63%
h2-hermonville 20-07-2026 - 04:04 16.3°C / 60.5%
h1-hermonville 20-07-2026 - 04:04 12.8°C / 73.5%
h3-hermonville 20-07-2026 - 04:00 15.7°C / 62.5%
h4-hermonville 20-07-2026 - 03:58 17.2°C / 56%
h2-hermonville 20-07-2026 - 03:54 16.3°C / 60.5%
h1-hermonville 20-07-2026 - 03:54 12.9°C / 73%
h3-hermonville 20-07-2026 - 03:50 15.6°C / 62%
h4-hermonville 20-07-2026 - 03:48 17.3°C / 55.5%
h2-hermonville 20-07-2026 - 03:44 17.1°C / 58.5%
h1-hermonville 20-07-2026 - 03:44 12.9°C / 72%
h3-hermonville 20-07-2026 - 03:40 15.8°C / 61%
h4-hermonville 20-07-2026 - 03:38 17.5°C / 55.5%
h2-hermonville 20-07-2026 - 03:34 16.8°C / 58.5%
h1-hermonville 20-07-2026 - 03:34 13.1°C / 71.5%
h3-hermonville 20-07-2026 - 03:30 15.9°C / 60.5%
h4-hermonville 20-07-2026 - 03:28 17.5°C / 55%
h2-hermonville 20-07-2026 - 03:24 17°C / 57.5%
h1-hermonville 20-07-2026 - 03:24 13.4°C / 70.5%
h3-hermonville 20-07-2026 - 03:20 16°C / 60%
h4-hermonville 20-07-2026 - 03:18 17.6°C / 54.5%
h2-hermonville 20-07-2026 - 03:14 17.1°C / 57%
h1-hermonville 20-07-2026 - 03:14 13.4°C / 70%
h3-hermonville 20-07-2026 - 03:10 15.8°C / 60.5%
h4-hermonville 20-07-2026 - 03:08 17.8°C / 53.5%
h2-hermonville 20-07-2026 - 03:04 17.3°C / 58%
h1-hermonville 20-07-2026 - 03:04 13.5°C / 69.5%
h3-hermonville 20-07-2026 - 03:00 16.1°C / 59.5%
h4-hermonville 20-07-2026 - 02:58 17.8°C / 53.5%
h2-hermonville 20-07-2026 - 02:54 17.2°C / 57.5%
h1-hermonville 20-07-2026 - 02:54 13.6°C / 68.5%
h3-hermonville 20-07-2026 - 02:50 16.1°C / 59%
h4-hermonville 20-07-2026 - 02:48 17.9°C / 53.5%
h2-hermonville 20-07-2026 - 02:44 17°C / 56.5%
h1-hermonville 20-07-2026 - 02:44 13.7°C / 68%
h3-hermonville 20-07-2026 - 02:40 16.3°C / 58.5%
h4-hermonville 20-07-2026 - 02:38 17.9°C / 53%
h2-hermonville 20-07-2026 - 02:34 17.2°C / 56.5%
h1-hermonville 20-07-2026 - 02:34 13.8°C / 67.5%
h3-hermonville 20-07-2026 - 02:30 16.5°C / 58%
h4-hermonville 20-07-2026 - 02:28 18.2°C / 52.5%
h2-hermonville 20-07-2026 - 02:24 17.6°C / 55%
h1-hermonville 20-07-2026 - 02:24 13.9°C / 67%
h3-hermonville 20-07-2026 - 02:20 16.6°C / 58%
h4-hermonville 20-07-2026 - 02:18 18.2°C / 52%
h2-hermonville 20-07-2026 - 02:14 17.7°C / 54.5%
h1-hermonville 20-07-2026 - 02:14 14°C / 66.5%
h3-hermonville 20-07-2026 - 02:10 16.6°C / 57%
h4-hermonville 20-07-2026 - 02:08 18.2°C / 52%
h2-hermonville 20-07-2026 - 02:04 18.3°C / 53%
h1-hermonville 20-07-2026 - 02:04 14.2°C / 65.5%
h3-hermonville 20-07-2026 - 02:00 16.7°C / 57%
h4-hermonville 20-07-2026 - 01:58 18.4°C / 51.5%
h2-hermonville 20-07-2026 - 01:54 18.5°C / 52%
h1-hermonville 20-07-2026 - 01:54 14.3°C / 65%
h3-hermonville 20-07-2026 - 01:50 16.7°C / 56.5%
h4-hermonville 20-07-2026 - 01:48 18.4°C / 52%
h1-hermonville 20-07-2026 - 01:44 14.4°C / 65%
h3-hermonville 20-07-2026 - 01:40 17°C / 56%
h4-hermonville 20-07-2026 - 01:38 18.4°C / 52%
h2-hermonville 20-07-2026 - 01:34 18.6°C / 53%
h1-hermonville 20-07-2026 - 01:34 14.5°C / 64.5%
h3-hermonville 20-07-2026 - 01:30 16.9°C / 56.5%
h4-hermonville 20-07-2026 - 01:28 18.7°C / 50.5%
h2-hermonville 20-07-2026 - 01:24 18.3°C / 53.5%
h1-hermonville 20-07-2026 - 01:24 14.6°C / 64%
h3-hermonville 20-07-2026 - 01:20 17°C / 56%
h4-hermonville 20-07-2026 - 01:18 19°C / 50%
h2-hermonville 20-07-2026 - 01:14 19°C / 51%
h1-hermonville 20-07-2026 - 01:14 14.8°C / 63%
h3-hermonville 20-07-2026 - 01:10 17.2°C / 55.5%
h4-hermonville 20-07-2026 - 01:08 18.8°C / 51%
h2-hermonville 20-07-2026 - 01:04 19.4°C / 50.5%
h1-hermonville 20-07-2026 - 01:04 15.1°C / 63%
h3-hermonville 20-07-2026 - 01:00 17.3°C / 55.5%
h4-hermonville 20-07-2026 - 00:58 19°C / 50.5%
h2-hermonville 20-07-2026 - 00:54 19.8°C / 50.5%
h1-hermonville 20-07-2026 - 00:54 15.2°C / 62.5%
h3-hermonville 20-07-2026 - 00:50 17.5°C / 55%
h2-hermonville 20-07-2026 - 00:44 19.9°C / 49%
h1-hermonville 20-07-2026 - 00:44 15.3°C / 62%
h3-hermonville 20-07-2026 - 00:40 17.5°C / 54.5%
h4-hermonville 20-07-2026 - 00:38 19.2°C / 50%
h1-hermonville 20-07-2026 - 00:34 15.6°C / 61.5%
h3-hermonville 20-07-2026 - 00:30 17.8°C / 54.5%
h4-hermonville 20-07-2026 - 00:28 19.3°C / 49.5%
h2-hermonville 20-07-2026 - 00:24 20.6°C / 48%
h1-hermonville 20-07-2026 - 00:24 15.8°C / 60.5%
h3-hermonville 20-07-2026 - 00:20 17.9°C / 53.5%
h4-hermonville 20-07-2026 - 00:18 19.3°C / 49.5%
h2-hermonville 20-07-2026 - 00:14 20.6°C / 48.5%
h1-hermonville 20-07-2026 - 00:14 15.9°C / 60%
h3-hermonville 20-07-2026 - 00:10 17.9°C / 53%
h4-hermonville 20-07-2026 - 00:08 19.5°C / 49%
h2-hermonville 20-07-2026 - 00:04 20.9°C / 47%
h1-hermonville 20-07-2026 - 00:04 16°C / 59%
h3-hermonville 20-07-2026 - 00:00 18.1°C / 53%